createdAt,value
2022-10-18T00:00:09.655Z,8.53
2022-10-18T00:01:40.984Z,9.13
2022-10-18T00:03:12.349Z,7.23
2022-10-18T00:04:43.745Z,8.23
2022-10-18T00:06:15.391Z,8.32
2022-10-18T00:07:51.787Z,9.29
2022-10-18T00:09:23.299Z,8.24
2022-10-18T00:10:54.975Z,7.02
2022-10-18T00:12:26.517Z,9.00
2022-10-18T00:13:58.073Z,9.06
2022-10-18T00:15:29.783Z,6.51
2022-10-18T00:17:01.312Z,8.25
2022-10-18T00:18:32.722Z,8.68
2022-10-18T00:20:04.119Z,8.09
2022-10-18T00:21:41.016Z,7.78
2022-10-18T00:23:12.503Z,6.23
2022-10-18T00:24:44.395Z,8.21
2022-10-18T00:26:15.859Z,10.03
2022-10-18T00:27:47.358Z,7.66
2022-10-18T00:29:18.867Z,9.94
2022-10-18T00:32:21.884Z,8.64
2022-10-18T00:33:53.264Z,8.24
2022-10-18T00:35:24.795Z,10.67
2022-10-18T00:36:56.935Z,8.96
2022-10-18T00:38:28.377Z,8.70
2022-10-18T00:39:59.860Z,7.48
2022-10-18T00:41:31.264Z,7.67
2022-10-18T00:43:02.649Z,9.73
2022-10-18T00:44:36.452Z,7.48
2022-10-18T00:46:07.753Z,8.91
2022-10-18T00:47:39.144Z,7.99
2022-10-18T00:49:11.967Z,7.12
2022-10-18T00:50:43.550Z,9.42
2022-10-18T00:52:15.206Z,8.78
2022-10-18T00:53:46.580Z,7.91
2022-10-18T00:55:23.374Z,8.18
2022-10-18T00:56:55.370Z,8.12
2022-10-18T00:58:26.845Z,7.77
2022-10-18T00:59:58.364Z,8.52
2022-10-18T01:01:30.271Z,8.41
2022-10-18T01:03:01.680Z,10.74
2022-10-18T01:04:33.129Z,8.26
2022-10-18T01:06:04.747Z,8.22
2022-10-18T01:07:36.048Z,6.32
2022-10-18T01:09:07.442Z,8.29
2022-10-18T01:10:38.749Z,7.66
2022-10-18T01:12:10.485Z,8.23
2022-10-18T01:13:41.910Z,11.61
2022-10-18T01:15:13.685Z,8.83
2022-10-18T01:16:45.061Z,7.98
2022-10-18T01:18:16.503Z,8.26
2022-10-18T01:19:53.442Z,6.93
2022-10-18T01:21:24.903Z,6.85
2022-10-18T01:23:02.893Z,7.15
2022-10-18T01:24:34.621Z,8.55
2022-10-18T01:26:07.580Z,7.27
2022-10-18T01:27:38.942Z,7.39
2022-10-18T01:29:10.430Z,6.87
2022-10-18T01:30:41.742Z,7.31
2022-10-18T01:32:13.126Z,8.53
2022-10-18T01:33:44.533Z,11.12
2022-10-18T01:35:15.936Z,10.80
2022-10-18T01:36:47.620Z,13.39
2022-10-18T01:38:19.112Z,10.11
2022-10-18T01:39:50.604Z,11.06
2022-10-18T01:41:22.171Z,7.70
2022-10-18T01:42:53.613Z,8.20
2022-10-18T01:44:25.057Z,11.35
2022-10-18T01:45:56.483Z,6.80
2022-10-18T01:47:28.448Z,7.29
2022-10-18T01:49:00.538Z,8.97
2022-10-18T01:50:31.926Z,10.86
2022-10-18T01:52:03.329Z,10.96
2022-10-18T01:53:34.831Z,7.79
2022-10-18T01:55:06.205Z,10.14
2022-10-18T01:56:37.504Z,7.11
2022-10-18T01:58:09.010Z,10.32
2022-10-18T01:59:40.415Z,15.34
2022-10-18T02:02:43.024Z,9.40
2022-10-18T02:04:14.638Z,9.12
2022-10-18T02:05:46.012Z,11.76
2022-10-18T02:07:17.487Z,8.43
2022-10-18T02:08:49.333Z,9.83
2022-10-18T02:10:20.900Z,10.18
2022-10-18T02:11:52.463Z,8.14
2022-10-18T02:13:23.745Z,6.12
2022-10-18T02:14:55.051Z,8.35
2022-10-18T02:16:26.394Z,8.48
2022-10-18T02:17:57.829Z,8.65
2022-10-18T02:19:34.230Z,6.79
2022-10-18T02:21:05.816Z,10.31
2022-10-18T02:22:37.250Z,6.98
2022-10-18T02:24:09.052Z,10.83
2022-10-18T02:25:40.535Z,7.08
2022-10-18T02:27:11.911Z,10.26
2022-10-18T02:28:43.485Z,7.63
2022-10-18T02:30:14.794Z,11.18
2022-10-18T02:31:46.308Z,10.76
2022-10-18T02:33:17.713Z,7.33
2022-10-18T02:34:49.127Z,8.43
2022-10-18T02:36:20.504Z,8.46
2022-10-18T02:37:53.221Z,6.17
2022-10-18T02:39:24.622Z,6.87
2022-10-18T02:40:55.921Z,5.85
2022-10-18T02:42:27.259Z,7.11
2022-10-18T02:43:58.767Z,5.80
2022-10-18T02:45:30.178Z,6.85
2022-10-18T02:47:06.715Z,7.84
2022-10-18T02:48:38.122Z,7.21
2022-10-18T02:50:09.394Z,5.52
2022-10-18T02:51:45.859Z,7.99
2022-10-18T02:53:17.283Z,7.22
2022-10-18T02:54:48.601Z,6.31
2022-10-18T02:56:19.928Z,6.13
2022-10-18T02:57:51.389Z,7.00
2022-10-18T02:59:22.695Z,7.90
2022-10-18T03:00:54.113Z,6.01
2022-10-18T03:02:25.481Z,8.78
2022-10-18T03:03:56.996Z,6.70
2022-10-18T03:05:28.418Z,7.24
2022-10-18T03:07:00.046Z,8.35
2022-10-18T03:08:31.879Z,8.30
2022-10-18T03:10:03.655Z,6.31
2022-10-18T03:11:35.136Z,7.73
2022-10-18T03:13:06.515Z,5.41
2022-10-18T03:14:38.231Z,7.26
2022-10-18T03:16:23.120Z,5.71
2022-10-18T03:17:54.543Z,9.57
2022-10-18T03:19:27.871Z,7.60
2022-10-18T03:21:12.435Z,9.14
2022-10-18T03:22:44.795Z,8.87
2022-10-18T03:24:16.445Z,6.25
2022-10-18T03:25:52.999Z,7.25
2022-10-18T03:27:34.607Z,8.70
2022-10-18T03:29:11.232Z,9.28
2022-10-18T03:30:42.627Z,7.48
2022-10-18T03:32:14.057Z,9.36
2022-10-18T03:33:45.486Z,7.21
2022-10-18T03:35:17.040Z,7.13
2022-10-18T03:36:48.432Z,7.80
2022-10-18T03:38:19.752Z,8.28
2022-10-18T03:39:51.083Z,7.07
2022-10-18T03:41:22.472Z,8.16
2022-10-18T03:42:54.950Z,9.14
2022-10-18T03:44:26.367Z,7.94
2022-10-18T03:45:57.898Z,6.97
2022-10-18T03:47:30.341Z,7.42
2022-10-18T03:49:01.856Z,9.33
2022-10-18T03:50:33.193Z,9.42
2022-10-18T03:52:04.534Z,9.68
2022-10-18T03:53:36.115Z,11.82
2022-10-18T03:55:07.455Z,10.55
2022-10-18T03:56:42.922Z,10.30
2022-10-18T03:58:14.270Z,10.74
2022-10-18T03:59:45.807Z,10.16
2022-10-18T04:01:17.263Z,10.88
2022-10-18T04:02:51.973Z,11.14
2022-10-18T04:04:26.305Z,10.42
2022-10-18T04:05:57.706Z,12.32
2022-10-18T04:07:29.070Z,10.12
2022-10-18T04:09:01.199Z,12.42
2022-10-18T04:10:33.152Z,12.39
2022-10-18T04:12:04.560Z,16.87
2022-10-18T04:13:35.964Z,14.11
2022-10-18T04:15:07.964Z,12.51
2022-10-18T04:16:39.365Z,14.21
2022-10-18T04:18:10.784Z,12.11
2022-10-18T04:19:42.206Z,13.33
2022-10-18T04:21:13.681Z,14.36
2022-10-18T04:22:45.129Z,12.17
2022-10-18T04:24:16.730Z,12.75
2022-10-18T04:25:48.150Z,14.78
2022-10-18T04:27:26.378Z,14.15
2022-10-18T04:28:57.984Z,14.27
2022-10-18T04:30:53.995Z,13.30
2022-10-18T04:32:35.582Z,12.57
2022-10-18T04:34:10.266Z,15.40
2022-10-18T04:35:41.621Z,15.68
2022-10-18T04:37:18.024Z,15.25
2022-10-18T04:38:49.627Z,14.06
2022-10-18T04:40:25.962Z,14.59
2022-10-18T04:42:02.525Z,14.77
2022-10-18T04:43:34.099Z,12.95
2022-10-18T04:45:05.515Z,13.21
2022-10-18T04:46:37.233Z,16.93
2022-10-18T04:48:08.765Z,14.66
2022-10-18T04:49:40.499Z,15.28
2022-10-18T04:51:12.067Z,15.52
2022-10-18T04:52:43.522Z,15.27
2022-10-18T04:54:14.990Z,15.30
2022-10-18T04:55:46.628Z,14.88
2022-10-18T04:57:18.007Z,16.67
2022-10-18T04:58:49.382Z,16.22
2022-10-18T05:00:20.810Z,16.91
2022-10-18T05:01:57.385Z,17.98
2022-10-18T05:03:33.849Z,18.40
2022-10-18T05:05:08.056Z,19.22
2022-10-18T05:06:41.750Z,17.12
2022-10-18T05:08:13.317Z,19.03
2022-10-18T05:09:44.698Z,18.75
2022-10-18T05:11:16.085Z,20.01
2022-10-18T05:12:52.459Z,19.32
2022-10-18T05:14:24.154Z,19.34
2022-10-18T05:15:55.493Z,18.76
2022-10-18T05:17:26.955Z,19.17
2022-10-18T05:19:22.999Z,20.89
2022-10-18T05:20:59.797Z,23.57
2022-10-18T05:22:31.632Z,22.37
2022-10-18T05:24:03.270Z,23.53
2022-10-18T05:25:34.610Z,24.21
2022-10-18T05:27:06.989Z,21.87
2022-10-18T05:28:40.356Z,23.07
2022-10-18T05:30:33.372Z,25.55
2022-10-18T05:32:04.922Z,25.78
2022-10-18T05:33:36.320Z,27.00
2022-10-18T05:35:07.643Z,28.92
2022-10-18T05:36:39.069Z,28.51
2022-10-18T05:38:10.424Z,31.68
2022-10-18T05:39:41.718Z,27.65
2022-10-18T05:41:13.055Z,31.80
2022-10-18T05:42:44.534Z,34.78
2022-10-18T05:44:16.052Z,32.11
2022-10-18T05:45:47.432Z,31.73
2022-10-18T05:47:19.017Z,29.63
2022-10-18T05:49:17.774Z,32.72
2022-10-18T05:50:49.535Z,34.68
2022-10-18T05:52:20.959Z,33.74
2022-10-18T05:53:52.657Z,34.02
2022-10-18T05:55:23.959Z,30.46
2022-10-18T05:56:55.443Z,33.99
2022-10-18T05:58:26.776Z,31.07
2022-10-18T05:59:58.151Z,32.45
2022-10-18T06:01:29.663Z,32.68
2022-10-18T06:03:01.161Z,36.18
2022-10-18T06:04:32.760Z,34.26
2022-10-18T06:06:04.107Z,32.79
2022-10-18T06:07:35.641Z,31.94
2022-10-18T06:09:07.021Z,32.81
2022-10-18T06:10:38.410Z,31.35
2022-10-18T06:12:09.902Z,35.70
2022-10-18T06:13:41.339Z,32.39
2022-10-18T06:15:12.810Z,33.84
2022-10-18T06:16:44.143Z,32.98
2022-10-18T06:18:15.866Z,33.94
2022-10-18T06:19:47.237Z,35.01
2022-10-18T06:21:18.680Z,37.03
2022-10-18T06:22:50.158Z,39.40
2022-10-18T06:24:21.567Z,33.89
2022-10-18T06:25:52.917Z,38.84
2022-10-18T06:27:24.293Z,32.39
2022-10-18T06:28:55.796Z,36.70
2022-10-18T06:30:27.227Z,35.72
2022-10-18T06:32:03.561Z,33.71
2022-10-18T06:33:34.957Z,34.22
2022-10-18T06:35:06.324Z,33.67
2022-10-18T06:36:37.720Z,33.77
2022-10-18T06:38:09.327Z,34.19
2022-10-18T06:39:40.661Z,35.64
2022-10-18T06:41:12.178Z,35.87
2022-10-18T06:42:47.792Z,33.23
2022-10-18T06:44:26.708Z,40.18
2022-10-18T06:45:58.148Z,38.06
2022-10-18T06:47:29.634Z,36.47
2022-10-18T06:49:01.040Z,37.29
2022-10-18T06:50:32.612Z,34.84
2022-10-18T06:52:03.994Z,34.99
2022-10-18T06:53:40.735Z,38.05
2022-10-18T06:55:15.794Z,34.01
2022-10-18T06:56:47.179Z,37.01
2022-10-18T06:58:18.522Z,37.05
2022-10-18T06:59:49.887Z,40.94
2022-10-18T07:01:21.241Z,42.13
2022-10-18T07:02:52.629Z,37.25
2022-10-18T07:04:24.040Z,39.87
2022-10-18T07:05:55.523Z,41.52
2022-10-18T07:07:26.944Z,42.76
2022-10-18T07:08:58.458Z,41.41
2022-10-18T07:10:30.134Z,46.38
2022-10-18T07:12:01.575Z,45.44
2022-10-18T07:13:33.465Z,41.79
2022-10-18T07:15:09.127Z,42.27
2022-10-18T07:16:41.435Z,42.23
2022-10-18T07:18:13.231Z,43.60
2022-10-18T07:19:44.998Z,43.68
2022-10-18T07:21:16.942Z,43.18
2022-10-18T07:22:49.220Z,42.87
2022-10-18T07:24:21.812Z,43.10
2022-10-18T07:25:53.433Z,42.00
2022-10-18T07:27:25.268Z,42.18
2022-10-18T07:28:56.921Z,39.40
2022-10-18T07:30:28.869Z,42.11
2022-10-18T07:32:00.903Z,40.23
2022-10-18T07:33:33.264Z,37.61
2022-10-18T07:35:04.965Z,39.30
2022-10-18T07:36:36.699Z,37.76
2022-10-18T07:38:08.269Z,38.06
2022-10-18T07:39:39.866Z,40.31
2022-10-18T07:41:11.423Z,38.82
2022-10-18T07:42:42.987Z,42.01
2022-10-18T07:44:14.476Z,39.04
2022-10-18T07:45:45.984Z,39.31
2022-10-18T07:47:17.591Z,41.08
2022-10-18T07:48:49.129Z,39.31
2022-10-18T07:50:20.581Z,34.70
2022-10-18T07:51:52.027Z,36.68
2022-10-18T07:53:23.534Z,38.52
2022-10-18T07:54:54.949Z,41.88
2022-10-18T07:56:26.909Z,38.46
2022-10-18T07:57:58.266Z,39.42
2022-10-18T07:59:29.798Z,42.08
2022-10-18T08:01:01.223Z,40.35
2022-10-18T08:02:41.660Z,42.70
2022-10-18T08:04:18.162Z,39.66
2022-10-18T08:05:49.500Z,41.31
2022-10-18T08:07:57.673Z,41.73
2022-10-18T08:09:29.212Z,42.15
2022-10-18T08:11:00.627Z,46.07
2022-10-18T08:12:34.552Z,46.33
2022-10-18T08:14:06.140Z,40.99
2022-10-18T08:15:37.796Z,44.99
2022-10-18T08:17:09.160Z,43.01
2022-10-18T08:18:40.780Z,44.23
2022-10-18T08:20:29.509Z,45.82
2022-10-18T08:22:02.124Z,44.87
2022-10-18T08:23:33.568Z,44.34
2022-10-18T08:25:05.064Z,44.20
2022-10-18T08:26:36.459Z,47.14
2022-10-18T08:28:07.955Z,44.50
2022-10-18T08:29:39.661Z,43.74
2022-10-18T08:31:11.497Z,45.04
2022-10-18T08:32:42.925Z,47.86
2022-10-18T08:34:18.720Z,45.97
2022-10-18T08:35:51.358Z,47.14
2022-10-18T08:37:59.170Z,45.17
2022-10-18T08:39:30.494Z,50.18
2022-10-18T08:41:01.899Z,50.94
2022-10-18T08:42:34.513Z,53.03
2022-10-18T08:44:07.460Z,52.42
2022-10-18T08:45:42.691Z,54.28
2022-10-18T08:47:19.788Z,57.42
2022-10-18T08:48:51.200Z,57.83
2022-10-18T08:50:22.505Z,58.15
2022-10-18T08:51:53.841Z,64.06
2022-10-18T08:53:25.369Z,58.30
2022-10-18T08:54:56.875Z,59.40
2022-10-18T08:56:28.493Z,63.52
2022-10-18T08:57:59.996Z,68.67
2022-10-18T08:59:31.911Z,71.25
2022-10-18T09:01:03.408Z,72.06
2022-10-18T09:02:35.299Z,70.76
2022-10-18T09:04:07.906Z,73.28
2022-10-18T09:05:39.259Z,75.20
2022-10-18T09:07:10.610Z,78.06
2022-10-18T09:08:42.163Z,73.68
2022-10-18T09:10:13.596Z,71.90
2022-10-18T09:11:44.948Z,72.08
2022-10-18T09:13:16.550Z,78.45
2022-10-18T09:14:47.852Z,77.47
2022-10-18T09:16:19.385Z,75.86
2022-10-18T09:17:50.985Z,72.94
2022-10-18T09:19:22.561Z,79.66
2022-10-18T09:20:53.905Z,77.96
2022-10-18T09:22:25.519Z,78.07
2022-10-18T09:24:03.594Z,75.25
2022-10-18T09:25:38.984Z,78.30
2022-10-18T09:27:17.664Z,78.03
2022-10-18T09:28:49.709Z,75.82
2022-10-18T09:30:21.616Z,72.24
2022-10-18T09:31:53.297Z,72.23
2022-10-18T09:33:24.756Z,68.44
2022-10-18T09:34:56.506Z,71.30
2022-10-18T09:36:28.436Z,67.15
2022-10-18T09:38:00.727Z,68.04
2022-10-18T09:39:32.234Z,67.74
2022-10-18T09:41:03.648Z,63.63
2022-10-18T09:42:35.327Z,61.23
2022-10-18T09:44:07.448Z,63.13
2022-10-18T09:45:38.974Z,64.90
2022-10-18T09:47:13.396Z,62.39
2022-10-18T09:48:47.310Z,59.78
2022-10-18T09:50:19.044Z,60.76
2022-10-18T09:51:50.468Z,58.08
2022-10-18T09:53:21.964Z,55.10
2022-10-18T09:54:53.386Z,55.46
2022-10-18T09:56:24.815Z,56.87
2022-10-18T09:57:56.207Z,54.14
2022-10-18T09:59:27.926Z,54.83
2022-10-18T10:00:59.647Z,53.43
2022-10-18T10:02:31.025Z,55.31
2022-10-18T10:04:02.410Z,52.11
2022-10-18T10:05:33.738Z,52.88
2022-10-18T10:07:05.465Z,57.33
2022-10-18T10:08:36.832Z,55.01
2022-10-18T10:10:08.180Z,50.78
2022-10-18T10:11:39.538Z,53.05
2022-10-18T10:13:10.971Z,53.86
2022-10-18T10:14:42.525Z,52.53
2022-10-18T10:16:24.061Z,54.09
2022-10-18T10:18:11.326Z,54.17
2022-10-18T10:19:43.160Z,53.09
2022-10-18T10:21:24.816Z,52.38
2022-10-18T10:23:06.626Z,54.26
2022-10-18T10:25:08.330Z,54.84
2022-10-18T10:26:40.146Z,55.61
2022-10-18T10:28:16.907Z,54.96
2022-10-18T10:29:48.551Z,53.96
2022-10-18T10:31:20.195Z,57.74
2022-10-18T10:33:01.857Z,58.74
2022-10-18T10:34:33.280Z,61.62
2022-10-18T10:36:14.621Z,59.85
2022-10-18T10:37:46.011Z,58.49
2022-10-18T10:39:22.545Z,59.07
2022-10-18T10:41:16.038Z,60.94
2022-10-18T10:42:47.547Z,59.72
2022-10-18T10:44:27.888Z,59.90
2022-10-18T10:45:59.632Z,53.38
2022-10-18T10:47:31.477Z,50.29
2022-10-18T10:49:38.657Z,52.58
2022-10-18T10:51:11.697Z,48.59
2022-10-18T10:52:43.489Z,54.93
2022-10-18T10:54:15.183Z,50.28
2022-10-18T10:55:47.512Z,51.24
2022-10-18T10:57:20.730Z,48.27
2022-10-18T10:58:57.482Z,45.37
2022-10-18T11:00:30.665Z,46.24
2022-10-18T11:02:02.104Z,49.60
2022-10-18T11:03:38.565Z,52.97
2022-10-18T11:05:10.455Z,51.77
2022-10-18T11:06:47.084Z,52.49
2022-10-18T11:08:21.724Z,51.28
2022-10-18T11:09:55.637Z,49.68
2022-10-18T11:11:27.179Z,50.96
2022-10-18T11:12:58.906Z,50.19
2022-10-18T11:14:30.479Z,50.30
2022-10-18T11:16:31.102Z,53.95
2022-10-18T11:18:12.739Z,49.09
2022-10-18T11:19:44.745Z,49.90
2022-10-18T11:21:16.294Z,45.55
2022-10-18T11:22:48.564Z,45.97
2022-10-18T11:24:30.755Z,48.85
2022-10-18T11:26:02.941Z,44.32
2022-10-18T11:27:34.416Z,42.75
2022-10-18T11:29:31.003Z,45.17
2022-10-18T11:31:27.108Z,43.79
2022-10-18T11:34:06.964Z,42.83
2022-10-18T11:35:39.419Z,40.68
2022-10-18T11:37:28.146Z,41.80
2022-10-18T11:39:12.820Z,41.57
2022-10-18T11:40:44.337Z,37.53
2022-10-18T11:42:17.242Z,39.74
2022-10-18T11:44:02.235Z,39.74
2022-10-18T11:45:34.954Z,41.92
2022-10-18T11:47:06.607Z,36.80
2022-10-18T11:48:38.138Z,35.96
2022-10-18T11:50:10.068Z,35.89
2022-10-18T11:51:56.388Z,37.49
2022-10-18T11:53:35.623Z,36.73
2022-10-18T11:55:07.215Z,33.54
2022-10-18T11:56:38.723Z,35.85
2022-10-18T11:58:10.599Z,35.26
2022-10-18T11:59:43.393Z,35.86
2022-10-18T12:01:15.115Z,33.21
2022-10-18T12:02:47.131Z,33.52
2022-10-18T12:04:18.568Z,32.84
2022-10-18T12:05:50.531Z,26.91
2022-10-18T12:07:27.805Z,24.04
2022-10-18T12:09:02.240Z,24.49
2022-10-18T12:10:45.718Z,24.49
2022-10-18T12:12:33.618Z,23.29
2022-10-18T12:14:05.798Z,27.95
2022-10-18T12:16:05.906Z,26.57
2022-10-18T12:17:45.092Z,26.45
2022-10-18T12:19:23.441Z,25.90
2022-10-18T12:20:58.041Z,27.76
2022-10-18T12:22:30.061Z,26.39
2022-10-18T12:24:02.261Z,25.68
2022-10-18T12:25:33.989Z,25.01
2022-10-18T12:27:05.556Z,24.23
2022-10-18T12:28:37.179Z,25.88
2022-10-18T12:30:08.840Z,26.96
2022-10-18T12:31:45.953Z,23.49
2022-10-18T12:33:27.857Z,19.35
2022-10-18T12:35:01.589Z,19.63
2022-10-18T12:36:33.355Z,20.87
2022-10-18T12:38:05.183Z,21.77
2022-10-18T12:39:43.747Z,21.99
2022-10-18T12:41:22.187Z,20.21
2022-10-18T12:42:53.626Z,19.02
2022-10-18T12:44:25.287Z,19.29
2022-10-18T12:45:56.955Z,18.62
2022-10-18T12:47:28.562Z,18.60
2022-10-18T12:49:00.285Z,20.77
2022-10-18T12:50:35.281Z,19.05
2022-10-18T12:52:07.253Z,20.22
2022-10-18T12:53:38.756Z,20.78
2022-10-18T12:55:13.930Z,20.80
2022-10-18T12:56:48.424Z,18.78
2022-10-18T12:58:25.210Z,19.96
2022-10-18T12:59:57.924Z,20.35
2022-10-18T13:01:34.500Z,19.51
2022-10-18T13:03:06.567Z,17.70
2022-10-18T13:04:38.213Z,18.62
2022-10-18T13:06:09.777Z,18.24
2022-10-18T13:07:41.827Z,15.28
2022-10-18T13:09:13.204Z,16.47
2022-10-18T13:10:44.673Z,15.60
2022-10-18T13:12:16.504Z,16.93
2022-10-18T13:13:48.046Z,16.31
2022-10-18T13:15:25.993Z,16.99
2022-10-18T13:16:58.692Z,16.50
2022-10-18T13:18:30.120Z,18.28
2022-10-18T13:20:24.459Z,18.03
2022-10-18T13:21:57.315Z,14.89
2022-10-18T13:23:30.056Z,15.57
2022-10-18T13:25:03.748Z,15.00
2022-10-18T13:26:35.509Z,13.72
2022-10-18T13:28:07.589Z,13.95
2022-10-18T13:29:39.678Z,11.98
2022-10-18T13:31:11.094Z,11.89
2022-10-18T13:32:43.044Z,13.06
2022-10-18T13:34:14.497Z,11.63
2022-10-18T13:35:46.070Z,8.84
2022-10-18T13:37:17.598Z,11.66
2022-10-18T13:38:49.022Z,12.46
2022-10-18T13:40:20.430Z,14.46
2022-10-18T13:41:56.704Z,11.81
2022-10-18T13:43:29.850Z,12.35
2022-10-18T13:45:01.219Z,13.75
2022-10-18T13:46:32.797Z,12.51
2022-10-18T13:48:04.541Z,13.06
2022-10-18T13:49:36.133Z,9.30
2022-10-18T13:51:07.746Z,11.11
2022-10-18T13:52:39.468Z,11.96
2022-10-18T13:54:11.207Z,12.38
2022-10-18T13:55:42.992Z,14.10
2022-10-18T13:57:14.411Z,12.96
2022-10-18T13:58:49.300Z,12.13
2022-10-18T14:00:31.229Z,12.41
2022-10-18T14:02:03.100Z,12.23
2022-10-18T14:03:56.418Z,12.06
2022-10-18T14:05:30.639Z,13.49
2022-10-18T14:07:02.609Z,14.45
2022-10-18T14:10:06.957Z,13.96
2022-10-18T14:11:44.066Z,15.74
2022-10-18T14:13:23.242Z,11.83
2022-10-18T14:14:54.701Z,13.05
2022-10-18T14:16:26.145Z,10.93
2022-10-18T14:17:57.507Z,10.45
2022-10-18T14:19:28.901Z,10.25
2022-10-18T14:21:14.600Z,11.11
2022-10-18T14:22:54.532Z,8.78
2022-10-18T14:24:31.337Z,11.19
2022-10-18T14:26:03.911Z,11.96
2022-10-18T14:27:37.835Z,11.11
2022-10-18T14:29:12.182Z,10.53
2022-10-18T14:30:50.505Z,11.13
2022-10-18T14:32:22.201Z,11.10
2022-10-18T14:33:57.614Z,11.49
2022-10-18T14:35:32.995Z,9.60
2022-10-18T14:37:05.204Z,12.65
2022-10-18T14:38:36.989Z,9.53
2022-10-18T14:40:08.841Z,8.47
2022-10-18T14:41:40.348Z,12.64
2022-10-18T14:43:12.054Z,12.60
2022-10-18T14:44:43.521Z,12.15
2022-10-18T14:46:14.921Z,12.99
2022-10-18T14:47:46.493Z,10.61
2022-10-18T14:49:18.015Z,12.46
2022-10-18T14:50:54.471Z,11.72
2022-10-18T14:52:26.634Z,10.69
2022-10-18T14:53:59.236Z,10.56
2022-10-18T14:55:30.668Z,9.18
2022-10-18T14:57:02.128Z,8.66
2022-10-18T14:58:33.988Z,9.23
2022-10-18T15:00:06.081Z,10.84
2022-10-18T15:01:37.893Z,10.49
2022-10-18T15:03:09.939Z,10.71
2022-10-18T15:04:46.628Z,13.40
2022-10-18T15:06:18.583Z,10.99
2022-10-18T15:07:50.327Z,11.54
2022-10-18T15:09:23.611Z,13.15
2022-10-18T15:11:00.285Z,11.14
2022-10-18T15:12:36.957Z,11.36
2022-10-18T15:14:17.474Z,12.11
2022-10-18T15:15:49.656Z,11.31
2022-10-18T15:17:21.253Z,10.11
2022-10-18T15:18:52.677Z,9.73
2022-10-18T15:20:24.453Z,12.59
2022-10-18T15:22:08.095Z,11.26
2022-10-18T15:23:45.412Z,10.24
2022-10-18T15:25:18.699Z,12.06
2022-10-18T15:26:50.636Z,12.18
2022-10-18T15:28:22.535Z,11.34
2022-10-18T15:29:59.418Z,10.54
2022-10-18T15:31:31.598Z,10.96
2022-10-18T15:33:03.166Z,9.98
2022-10-18T15:34:34.656Z,10.36
2022-10-18T15:36:06.287Z,10.59
2022-10-18T15:37:38.428Z,11.04
2022-10-18T15:39:10.341Z,8.63
2022-10-18T15:40:41.778Z,8.51
2022-10-18T15:42:32.931Z,12.02
2022-10-18T15:44:14.088Z,9.08
2022-10-18T15:47:19.502Z,8.65
2022-10-18T15:48:56.656Z,10.29
2022-10-18T15:50:28.398Z,9.29
2022-10-18T15:52:00.120Z,10.95
2022-10-18T15:53:31.560Z,9.43
2022-10-18T15:55:03.365Z,8.40
2022-10-18T15:56:34.828Z,12.86
2022-10-18T15:58:06.247Z,10.49
2022-10-18T15:59:38.568Z,10.83
2022-10-18T16:01:30.492Z,10.72
2022-10-18T16:03:02.242Z,12.06
2022-10-18T16:04:33.956Z,8.85
2022-10-18T16:06:05.706Z,10.41
2022-10-18T16:08:00.119Z,11.37
2022-10-18T16:09:31.878Z,11.10
2022-10-18T16:11:13.351Z,12.31
2022-10-18T16:12:44.892Z,12.20
2022-10-18T16:14:16.366Z,11.77
2022-10-18T16:16:29.827Z,12.71
2022-10-18T16:18:01.393Z,12.75
2022-10-18T16:19:32.918Z,11.47
2022-10-18T16:21:14.382Z,10.48
2022-10-18T16:22:47.035Z,14.29
2022-10-18T16:24:48.905Z,19.24
2022-10-18T16:26:45.308Z,16.55
2022-10-18T16:28:22.501Z,12.49
2022-10-18T16:29:53.877Z,12.49
2022-10-18T16:31:25.319Z,13.21
2022-10-18T16:33:08.207Z,12.92
2022-10-18T16:34:39.626Z,12.89
2022-10-18T16:36:11.632Z,12.26
2022-10-18T16:37:44.034Z,12.04
2022-10-18T16:39:15.452Z,12.40
2022-10-18T16:40:52.445Z,14.40
2022-10-18T16:42:23.955Z,12.54
2022-10-18T16:44:06.364Z,11.55
2022-10-18T16:45:38.471Z,12.62
2022-10-18T16:47:15.245Z,13.46
2022-10-18T16:48:59.826Z,8.85
2022-10-18T16:51:07.544Z,12.06
2022-10-18T16:52:38.976Z,10.35
2022-10-18T16:54:10.553Z,12.42
2022-10-18T16:56:39.268Z,12.33
2022-10-18T16:58:13.018Z,10.53
2022-10-18T16:59:44.712Z,12.03
2022-10-18T17:01:16.368Z,12.18
2022-10-18T17:02:52.867Z,14.38
2022-10-18T17:04:26.738Z,12.94
2022-10-18T17:05:59.529Z,11.23
2022-10-18T17:07:36.248Z,10.89
2022-10-18T17:09:22.462Z,13.19
2022-10-18T17:10:54.103Z,14.29
2022-10-18T17:12:25.629Z,13.24
2022-10-18T17:14:02.432Z,11.56
2022-10-18T17:15:35.181Z,11.54
2022-10-18T17:17:16.502Z,11.02
2022-10-18T17:18:57.706Z,11.28
2022-10-18T17:20:29.229Z,15.01
2022-10-18T17:22:02.724Z,13.86
2022-10-18T17:23:39.762Z,14.07
2022-10-18T17:25:46.228Z,16.46
2022-10-18T17:27:31.165Z,19.39
2022-10-18T17:29:06.970Z,17.81
2022-10-18T17:31:25.188Z,17.45
2022-10-18T17:33:11.041Z,28.34
2022-10-18T17:34:42.985Z,48.99
2022-10-18T17:36:14.765Z,22.21
2022-10-18T17:37:47.421Z,22.88
2022-10-18T17:39:18.808Z,30.86
2022-10-18T17:41:16.765Z,45.77
2022-10-18T17:42:48.393Z,37.57
2022-10-18T17:44:19.695Z,15.40
2022-10-18T17:45:51.380Z,14.70
2022-10-18T17:47:33.531Z,13.65
2022-10-18T17:49:05.354Z,13.31
2022-10-18T17:50:42.148Z,15.04
2022-10-18T17:52:23.927Z,13.53
2022-10-18T17:53:55.560Z,12.14
2022-10-18T17:55:39.726Z,17.63
2022-10-18T17:57:11.735Z,30.08
2022-10-18T17:58:43.312Z,23.25
2022-10-18T18:00:20.151Z,21.14
2022-10-18T18:02:47.921Z,19.38
2022-10-18T18:04:25.868Z,17.63
2022-10-18T18:05:57.735Z,17.08
2022-10-18T18:07:29.349Z,16.76
2022-10-18T18:09:06.689Z,14.41
2022-10-18T18:10:38.125Z,20.71
2022-10-18T18:13:05.052Z,22.85
2022-10-18T18:14:42.711Z,21.76
2022-10-18T18:16:21.665Z,21.61
2022-10-18T18:18:19.503Z,24.93
2022-10-18T18:20:02.577Z,26.84
2022-10-18T18:21:34.317Z,22.61
2022-10-18T18:23:26.034Z,22.66
2022-10-18T18:24:57.797Z,21.13
2022-10-18T18:26:29.568Z,16.92
2022-10-18T18:28:06.598Z,17.32
2022-10-18T18:29:39.103Z,15.52
2022-10-18T18:31:10.663Z,15.15
2022-10-18T18:32:42.280Z,15.59
2022-10-18T18:34:14.350Z,27.28
2022-10-18T18:35:45.816Z,50.38
2022-10-18T18:37:28.611Z,42.90
2022-10-18T18:39:30.870Z,20.71
2022-10-18T18:41:02.276Z,14.85
2022-10-18T18:42:34.621Z,14.38
2022-10-18T18:44:11.813Z,14.55
2022-10-18T18:45:43.477Z,14.37
2022-10-18T18:47:15.057Z,14.70
2022-10-18T18:48:46.668Z,14.30
2022-10-18T18:52:08.107Z,14.87
2022-10-18T18:53:39.523Z,12.59
2022-10-18T18:55:11.307Z,15.42
2022-10-18T18:56:43.039Z,12.81
2022-10-18T18:58:19.531Z,14.05
2022-10-18T19:00:01.135Z,13.40
2022-10-18T19:01:32.630Z,12.91
2022-10-18T19:03:40.147Z,13.36
2022-10-18T19:05:12.435Z,12.76
2022-10-18T19:06:44.618Z,13.29
2022-10-18T19:08:16.286Z,12.05
2022-10-18T19:09:48.259Z,12.51
2022-10-18T19:11:20.311Z,15.44
2022-10-18T19:12:51.970Z,16.49
2022-10-18T19:14:31.044Z,15.91
2022-10-18T19:16:08.352Z,17.71
2022-10-18T19:17:40.176Z,20.50
2022-10-18T19:19:12.370Z,29.26
2022-10-18T19:20:55.515Z,27.74
2022-10-18T19:22:33.041Z,20.16
2022-10-18T19:24:05.468Z,20.79
2022-10-18T19:25:37.128Z,22.96
2022-10-18T19:27:08.734Z,19.81
2022-10-18T19:29:04.118Z,21.22
2022-10-18T19:30:36.192Z,20.18
2022-10-18T19:32:13.237Z,17.69
2022-10-18T19:33:48.765Z,20.91
2022-10-18T19:35:32.409Z,18.46
2022-10-18T19:37:03.753Z,17.97
2022-10-18T19:38:35.417Z,14.10
2022-10-18T19:40:10.791Z,18.29
2022-10-18T19:41:47.791Z,20.53
2022-10-18T19:43:19.554Z,20.22
2022-10-18T19:44:51.423Z,15.39
2022-10-18T19:46:23.118Z,18.80
2022-10-18T19:48:16.268Z,18.14
2022-10-18T19:49:48.658Z,15.22
2022-10-18T19:51:24.031Z,18.16
2022-10-18T19:52:57.107Z,20.45
2022-10-18T19:55:06.587Z,194.39
2022-10-18T19:56:38.278Z,189.98
2022-10-18T19:58:09.935Z,124.18
2022-10-18T20:01:13.018Z,21.54
2022-10-18T20:02:44.705Z,17.68
2022-10-18T20:04:16.288Z,19.10
2022-10-18T20:05:47.715Z,20.45
2022-10-18T20:07:19.787Z,18.50
2022-10-18T20:09:01.339Z,20.43
2022-10-18T20:10:32.831Z,35.73
2022-10-18T20:12:40.756Z,55.24
2022-10-18T20:14:13.100Z,53.82
2022-10-18T20:15:49.484Z,45.32
2022-10-18T20:17:40.745Z,36.96
2022-10-18T20:19:30.687Z,32.64
2022-10-18T20:23:03.381Z,26.76
2022-10-18T20:24:34.849Z,26.18
2022-10-18T20:26:12.948Z,33.26
2022-10-18T20:27:59.700Z,30.13
2022-10-18T20:29:31.283Z,32.05
2022-10-18T20:31:12.980Z,30.85
2022-10-18T20:32:44.844Z,29.30
2022-10-18T20:34:23.244Z,25.71
2022-10-18T20:35:54.772Z,28.00
2022-10-18T20:37:36.578Z,25.63